Withee, Wisconsin
Current Conditions -  °F | °C
As of 5:15 AM on Tuesday 21 Oct 2014 (Local Time) from KMDZ Reporting Station
Overcast Overcast  
Wind Chill: 32°   Ceiling: 1700
Heat Index: 39°   Visibility: 10mi
Dew Point: 34°   Wind: 10mph
Humidity: 81%   Direction: 30°NNE
Pressure: 30.14"   Gusts: NA
Location:  44.96°N, 90.6°W
Report Text: KMDZ 211015Z AUTO 03009KT 10SM OVC017 04/01 A3014 RMK AO2 T00400010
Loading
Personal Weather Stations






























Interactive Weather Map
Tropical Storm Tracking
New forecast layout! Learn more

10-Day Weather Forecast

Advertisements
Track Severe Weather on mobile